Time;durP1;ratioP1;P1;durP2;ratioP2;P2;SDS_P1;SDS_P2;PMS_P1;PMS_P2;Temp;Humidity;BMP_temperature;BMP_pressure;BME280_temperature;BME280_humidity;BME280_pressure;Samples;Min_cycle;Max_cycle;Signal;HPM_P1;HPM_P2
2022/12/30 00:00:59;;;;;;;14.13;9.27;;;1.00;99.90;;;;;;5071849;28;20024;-55
2022/12/30 00:04:14;;;;;;;11.02;9.38;;;1.10;99.90;;;;;;5063361;28;20051;-55
2022/12/30 00:06:40;;;;;;;11.45;9.45;;;1.10;99.90;;;;;;5050999;28;20465;-53
2022/12/30 00:09:06;;;;;;;11.23;9.10;;;1.10;99.90;;;;;;5052873;28;20055;-56
2022/12/30 00:11:34;;;;;;;13.48;9.20;;;1.10;99.90;;;;;;5051372;28;20052;-55
2022/12/30 00:33:46;;;;;;;13.32;10.18;;;1.00;99.90;;;;;;5069824;28;20094;-55
2022/12/30 00:36:11;;;;;;;18.20;9.95;;;1.10;99.90;;;;;;5071861;28;20510;-53
2022/12/30 00:38:37;;;;;;;14.95;10.32;;;1.10;99.90;;;;;;5069824;28;20032;-53
2022/12/30 00:43:47;;;;;;;16.33;10.77;;;1.10;99.90;;;;;;5052350;28;20044;-54
2022/12/30 00:46:13;;;;;;;15.02;9.77;;;1.10;99.90;;;;;;5052379;28;20412;-54
2022/12/30 00:56:52;;;;;;;10.20;8.27;;;1.30;99.90;;;;;;5072187;28;20074;-53
2022/12/30 00:59:17;;;;;;;11.75;8.82;;;1.40;99.90;;;;;;5063970;28;20364;-54
2022/12/30 01:01:43;;;;;;;12.80;9.45;;;1.50;99.90;;;;;;5064659;28;20029;-55
2022/12/30 01:04:08;;;;;;;16.42;10.18;;;1.50;99.90;;;;;;5070609;28;20032;-54
2022/12/30 01:06:37;;;;;;;15.00;9.27;;;1.60;99.90;;;;;;5070867;28;20036;-52
2022/12/30 01:09:03;;;;;;;9.60;8.13;;;1.60;99.90;;;;;;5071267;28;20032;-55
2022/12/30 01:11:29;;;;;;;12.07;8.63;;;1.60;99.90;;;;;;5071723;28;20033;-52
2022/12/30 01:13:54;;;;;;;18.70;9.43;;;1.60;99.90;;;;;;5071633;28;20082;-52
2022/12/30 01:16:20;;;;;;;10.85;8.52;;;1.60;99.90;;;;;;5071660;28;20043;-54
2022/12/30 01:18:46;;;;;;;12.75;8.80;;;1.70;99.90;;;;;;5069871;28;20025;-54
2022/12/30 01:21:11;;;;;;;15.60;9.18;;;1.70;99.90;;;;;;5051492;28;20028;-53
2022/12/30 01:23:37;;;;;;;20.05;9.63;;;1.80;99.90;;;;;;5051471;28;20036;-53
2022/12/30 01:26:04;;;;;;;14.95;9.27;;;1.90;99.90;;;;;;5051646;28;20107;-53
2022/12/30 01:28:35;;;;;;;10.52;7.70;;;1.90;99.90;;;;;;5051510;28;20028;-53
2022/12/30 01:31:05;;;;;;;12.70;9.00;;;2.00;99.90;;;;;;5051508;28;20040;-53
2022/12/30 01:33:30;;;;;;;12.07;8.80;;;2.10;99.90;;;;;;5051040;28;20021;-54
2022/12/30 01:35:56;;;;;;;14.75;9.55;;;2.20;99.90;;;;;;5051693;28;20108;-56
2022/12/30 01:38:22;;;;;;;12.15;8.30;;;2.10;99.90;;;;;;5051281;28;20025;-53
2022/12/30 01:40:47;;;;;;;12.27;8.63;;;2.10;99.90;;;;;;5069115;28;20029;-56
2022/12/30 01:43:16;;;;;;;14.15;9.18;;;2.20;99.90;;;;;;5071346;28;20039;-54
2022/12/30 01:45:48;;;;;;;12.52;9.18;;;2.10;99.90;;;;;;5071566;28;20078;-53
2022/12/30 01:48:16;;;;;;;13.02;10.13;;;2.10;99.90;;;;;;5071359;28;20068;-55
2022/12/30 01:50:56;;;;;;;19.02;9.15;;;2.10;99.90;;;;;;5070552;28;20060;-54
2022/12/30 01:53:28;;;;;;;11.98;9.02;;;2.00;99.90;;;;;;5071200;28;20025;-52
2022/12/30 01:55:53;;;;;;;13.77;9.82;;;2.00;99.90;;;;;;5071313;28;20044;-54
2022/12/30 01:58:25;;;;;;;11.85;9.20;;;1.90;99.90;;;;;;5071130;28;20461;-56
2022/12/30 02:00:51;;;;;;;10.95;8.27;;;1.90;99.90;;;;;;5053321;28;20021;-55
2022/12/30 02:03:17;;;;;;;12.30;9.05;;;1.90;99.90;;;;;;5051147;28;20037;-52
2022/12/30 02:05:44;;;;;;;13.63;10.32;;;1.90;99.90;;;;;;5051166;28;20029;-57
2022/12/30 02:08:18;;;;;;;13.50;9.13;;;1.90;99.90;;;;;;5051297;28;20052;-54
2022/12/30 02:10:52;;;;;;;13.70;7.32;;;2.00;99.90;;;;;;5066302;28;20551;-53
2022/12/30 02:13:19;;;;;;;9.00;8.10;;;2.10;99.90;;;;;;5069588;28;20033;-54
2022/12/30 02:16:14;;;;;;;12.20;8.32;;;2.20;99.90;;;;;;5071137;28;20103;-55
2022/12/30 02:19:40;;;;;;;11.15;7.82;;;2.30;99.90;;;;;;5074256;28;20023;-55
2022/12/30 02:22:12;;;;;;;9.77;6.88;;;2.30;99.90;;;;;;5054991;28;20025;-53
2022/12/30 02:24:51;;;;;;;14.30;10.18;;;2.40;99.90;;;;;;5055010;28;20035;-52
2022/12/30 02:27:53;;;;;;;12.05;8.10;;;2.50;99.90;;;;;;5053576;28;20062;-56
2022/12/30 02:30:40;;;;;;;11.90;6.93;;;2.60;99.90;;;;;;5055751;28;20021;-56
2022/12/30 02:33:20;;;;;;;7.82;6.93;;;2.70;99.90;;;;;;5054735;28;20567;-54
2022/12/30 02:36:02;;;;;;;8.02;6.72;;;2.70;99.90;;;;;;5054537;28;20116;-55
2022/12/30 02:38:43;;;;;;;8.43;5.50;;;2.70;99.90;;;;;;5054589;28;20021;-52
2022/12/30 02:44:36;;;;;;;7.43;6.47;;;2.80;99.90;;;;;;5054633;28;20048;-51
2022/12/30 02:47:10;;;;;;;8.27;6.10;;;2.80;99.90;;;;;;5053217;28;20716;-53
2022/12/30 02:49:38;;;;;;;8.00;5.72;;;2.80;99.90;;;;;;5060707;28;20481;-52
2022/12/30 02:52:14;;;;;;;8.35;5.28;;;2.80;99.90;;;;;;5074382;28;20024;-55
2022/12/30 02:54:42;;;;;;;5.90;5.30;;;2.80;99.90;;;;;;5074260;28;20447;-55
2022/12/30 02:57:40;;;;;;;10.35;5.65;;;2.80;99.90;;;;;;5073223;28;20056;-55
2022/12/30 03:06:37;;;;;;;8.70;5.32;;;2.90;99.90;;;;;;5054325;28;20122;-56
2022/12/30 03:09:08;;;;;;;6.25;5.47;;;3.00;99.90;;;;;;5055298;28;20029;-53
2022/12/30 03:12:08;;;;;;;6.07;5.10;;;3.10;99.90;;;;;;5073919;28;20178;-54
2022/12/30 03:14:42;;;;;;;6.13;5.05;;;3.10;99.90;;;;;;5073876;28;20095;-56
2022/12/30 03:17:17;;;;;;;5.72;5.07;;;3.10;99.90;;;;;;5074027;28;20020;-53
2022/12/30 03:19:50;;;;;;;7.00;5.25;;;3.10;99.90;;;;;;5066574;28;20017;-53
2022/12/30 03:27:53;;;;;;;7.22;4.70;;;3.20;99.90;;;;;;5053731;28;20531;-52
2022/12/30 03:30:19;;;;;;;6.13;5.50;;;3.50;99.90;;;;;;5064248;28;20098;-53
2022/12/30 03:32:46;;;;;;;4.85;4.05;;;3.80;99.90;;;;;;5073220;28;20060;-52
2022/12/30 03:35:12;;;;;;;7.53;4.53;;;4.00;99.90;;;;;;5073612;28;20027;-53
2022/12/30 03:37:49;;;;;;;7.20;4.55;;;4.10;99.90;;;;;;5073307;28;20115;-51
2022/12/30 03:40:21;;;;;;;6.80;4.38;;;4.30;99.90;;;;;;5070044;28;20300;-56
2022/12/30 03:42:48;;;;;;;6.22;4.53;;;4.50;99.90;;;;;;5073423;28;20067;-54
2022/12/30 03:45:14;;;;;;;4.57;4.18;;;4.60;99.90;;;;;;5073422;28;20589;-55
2022/12/30 03:47:40;;;;;;;4.90;4.28;;;4.60;99.90;;;;;;5073483;28;20029;-53
2022/12/30 03:50:06;;;;;;;4.18;3.75;;;4.70;99.90;;;;;;5067414;28;20033;-53
2022/12/30 03:52:31;;;;;;;5.20;3.90;;;4.80;99.90;;;;;;5053113;28;20033;-52
2022/12/30 03:54:57;;;;;;;4.47;4.00;;;4.90;99.90;;;;;;5051880;28;20043;-53
2022/12/30 03:57:23;;;;;;;4.50;4.10;;;5.00;99.90;;;;;;5053001;28;20044;-51
2022/12/30 03:59:48;;;;;;;5.35;3.42;;;5.10;99.90;;;;;;5056308;28;20009;-55
2022/12/30 04:02:14;;;;;;;3.50;3.20;;;5.20;99.90;;;;;;5072740;28;20434;-52
2022/12/30 04:04:40;;;;;;;4.57;4.10;;;5.30;99.90;;;;;;5073088;28;20021;-56
2022/12/30 04:07:06;;;;;;;6.85;3.25;;;5.40;99.90;;;;;;5073133;28;20025;-56
2022/12/30 04:09:31;;;;;;;7.50;3.58;;;5.50;99.90;;;;;;5071521;28;20040;-56
2022/12/30 04:11:57;;;;;;;3.53;3.20;;;5.40;99.90;;;;;;5052878;28;20047;-53
2022/12/30 04:14:23;;;;;;;3.58;3.38;;;5.50;99.90;;;;;;5051433;28;20025;-56
2022/12/30 04:16:48;;;;;;;4.95;4.55;;;5.50;99.90;;;;;;5052860;28;20033;-55
2022/12/30 04:19:14;;;;;;;4.63;3.80;;;5.40;99.90;;;;;;5052823;28;20070;-56
2022/12/30 04:21:40;;;;;;;4.35;3.88;;;5.30;99.90;;;;;;5070423;28;20017;-51
2022/12/30 04:24:06;;;;;;;6.60;3.63;;;5.30;99.90;;;;;;5072642;28;20495;-55
2022/12/30 04:26:33;;;;;;;4.90;4.20;;;5.10;99.90;;;;;;5072580;28;20031;-56
2022/12/30 04:28:59;;;;;;;4.00;3.60;;;5.10;99.90;;;;;;5072519;28;20551;-54
2022/12/30 04:31:25;;;;;;;7.07;4.05;;;5.20;99.90;;;;;;5056033;28;20020;-56
2022/12/30 04:33:52;;;;;;;4.47;4.07;;;5.20;99.90;;;;;;5052381;28;20043;-56
2022/12/30 04:36:19;;;;;;;4.07;3.70;;;5.10;99.90;;;;;;5052494;28;20032;-54
2022/12/30 04:38:45;;;;;;;4.03;3.67;;;5.20;99.90;;;;;;5052380;28;20029;-54
2022/12/30 04:41:11;;;;;;;6.38;4.38;;;5.10;99.90;;;;;;5064234;28;20033;-54
2022/12/30 04:43:37;;;;;;;3.90;3.40;;;5.10;99.90;;;;;;5072120;28;20427;-54
2022/12/30 04:46:03;;;;;;;5.10;4.15;;;5.00;99.90;;;;;;5072486;28;20028;-54
2022/12/30 04:48:28;;;;;;;5.32;4.88;;;5.00;99.90;;;;;;5072080;28;20056;-56
2022/12/30 04:50:54;;;;;;;6.22;4.65;;;4.90;99.90;;;;;;5060611;28;20452;-54
2022/12/30 04:53:20;;;;;;;4.55;4.13;;;4.80;99.90;;;;;;5051919;28;20037;-51
2022/12/30 04:55:45;;;;;;;4.97;4.40;;;4.80;99.90;;;;;;5052310;28;20021;-53
2022/12/30 04:58:11;;;;;;;5.45;4.68;;;4.70;99.90;;;;;;5051997;28;20472;-55
2022/12/30 05:00:37;;;;;;;7.35;4.30;;;4.70;99.90;;;;;;5060271;28;20082;-55
2022/12/30 05:03:03;;;;;;;5.40;4.10;;;4.70;99.90;;;;;;5071960;28;20036;-52
2022/12/30 05:05:28;;;;;;;6.47;4.75;;;4.60;99.90;;;;;;5071711;28;20384;-53
2022/12/30 05:07:54;;;;;;;7.13;5.18;;;4.70;99.90;;;;;;5071151;28;20025;-55
2022/12/30 05:10:20;;;;;;;7.40;5.68;;;4.70;99.90;;;;;;5064406;28;20132;-53
2022/12/30 05:12:45;;;;;;;6.65;4.90;;;4.70;99.90;;;;;;5050989;28;20468;-57
2022/12/30 05:15:11;;;;;;;6.15;4.97;;;4.70;99.90;;;;;;5051015;28;20457;-56
2022/12/30 05:17:37;;;;;;;9.57;4.70;;;4.70;99.90;;;;;;5050480;28;20537;-52
2022/12/30 05:20:02;;;;;;;8.35;6.63;;;4.70;99.90;;;;;;5053855;28;20365;-55
2022/12/30 05:22:28;;;;;;;5.30;4.80;;;4.80;99.90;;;;;;5070687;28;20036;-56
2022/12/30 05:27:38;;;;;;;4.03;3.70;;;5.00;99.90;;;;;;5071307;28;20035;-53
2022/12/30 05:30:04;;;;;;;4.90;3.83;;;5.10;99.90;;;;;;5068002;28;20017;-55
2022/12/30 05:32:30;;;;;;;5.22;4.57;;;5.20;99.90;;;;;;5051341;28;20020;-53
2022/12/30 05:34:55;;;;;;;4.75;4.25;;;5.30;99.90;;;;;;5051876;28;20508;-54
2022/12/30 05:37:21;;;;;;;6.38;3.80;;;5.30;99.90;;;;;;5051300;28;20017;-57
2022/12/30 05:39:47;;;;;;;3.58;3.28;;;5.40;99.90;;;;;;5052088;28;20028;-56
2022/12/30 05:42:12;;;;;;;7.88;5.95;;;5.40;99.90;;;;;;5070054;28;20043;-56
2022/12/30 05:44:38;;;;;;;4.72;3.60;;;5.40;99.90;;;;;;5066279;28;20025;-57
2022/12/30 05:47:04;;;;;;;4.88;3.85;;;5.30;99.90;;;;;;5070713;28;20115;-55
2022/12/30 05:49:29;;;;;;;5.45;3.85;;;5.20;99.90;;;;;;5070916;28;20021;-55
2022/12/30 05:51:55;;;;;;;4.30;3.90;;;5.20;99.90;;;;;;5061270;28;20025;-53
2022/12/30 05:54:21;;;;;;;5.05;3.97;;;5.10;99.90;;;;;;5061035;28;20036;-54
2022/12/30 05:56:46;;;;;;;4.25;3.88;;;5.10;99.90;;;;;;5075342;28;20024;-57
2022/12/30 05:59:12;;;;;;;4.88;4.00;;;5.10;99.90;;;;;;5075510;28;20099;-52
2022/12/30 06:01:38;;;;;;;4.93;4.32;;;5.10;99.90;;;;;;5059510;28;20468;-53
2022/12/30 06:04:03;;;;;;;4.10;3.80;;;5.00;99.90;;;;;;5068593;28;20527;-53
2022/12/30 06:06:29;;;;;;;6.40;4.75;;;5.00;99.90;;;;;;5075236;28;20472;-53
2022/12/30 06:08:55;;;;;;;8.13;6.53;;;4.90;99.90;;;;;;5075102;28;20028;-57
2022/12/30 06:11:20;;;;;;;5.20;4.38;;;5.00;99.90;;;;;;5074430;28;20532;-55
2022/12/30 06:13:46;;;;;;;4.63;4.20;;;5.00;99.90;;;;;;5075159;28;20025;-52
2022/12/30 06:16:12;;;;;;;5.05;4.55;;;5.10;99.90;;;;;;5074971;28;20021;-51
2022/12/30 06:18:38;;;;;;;5.75;4.70;;;5.00;99.90;;;;;;5070644;28;20085;-53
2022/12/30 06:21:04;;;;;;;5.03;4.40;;;5.10;99.90;;;;;;5065887;28;20025;-54
2022/12/30 06:23:29;;;;;;;5.72;5.13;;;5.10;99.90;;;;;;5074853;28;20028;-50
2022/12/30 06:25:57;;;;;;;9.00;6.72;;;5.00;99.90;;;;;;5074893;28;20035;-55
2022/12/30 06:28:23;;;;;;;8.07;5.63;;;5.00;99.90;;;;;;5073930;28;20040;-52
2022/12/30 06:30:49;;;;;;;5.07;4.57;;;5.00;99.90;;;;;;5074815;28;20028;-51
2022/12/30 06:33:16;;;;;;;11.85;5.55;;;4.90;99.90;;;;;;5068960;28;20032;-53
2022/12/30 06:35:43;;;;;;;17.20;5.28;;;4.90;99.90;;;;;;5055561;28;20025;-55
2022/12/30 06:38:09;;;;;;;5.47;4.97;;;4.80;99.90;;;;;;5062219;28;20089;-57
2022/12/30 06:40:35;;;;;;;6.80;5.40;;;4.80;99.90;;;;;;5074329;28;20732;-57
2022/12/30 06:43:00;;;;;;;11.48;8.40;;;4.70;99.90;;;;;;5073877;28;20090;-56
2022/12/30 06:45:26;;;;;;;16.58;9.50;;;4.70;99.90;;;;;;5074083;28;20444;-57
2022/12/30 06:47:52;;;;;;;9.73;7.20;;;4.60;99.90;;;;;;5074177;28;20036;-53
2022/12/30 06:50:18;;;;;;;13.15;8.70;;;4.50;99.90;;;;;;5074052;28;20102;-56
2022/12/30 06:52:43;;;;;;;17.08;9.25;;;4.50;99.90;;;;;;5074123;28;20056;-55
2022/12/30 06:55:09;;;;;;;11.18;8.70;;;4.40;99.90;;;;;;5060840;28;20044;-55
2022/12/30 06:57:35;;;;;;;12.32;8.82;;;4.40;99.90;;;;;;5073974;28;20020;-50
2022/12/30 07:00:02;;;;;;;11.88;8.18;;;4.40;99.90;;;;;;5074049;28;20028;-51
2022/12/30 07:02:28;;;;;;;20.55;8.63;;;4.30;99.90;;;;;;5073996;28;20025;-54
2022/12/30 07:04:53;;;;;;;8.38;7.00;;;4.30;99.90;;;;;;5060122;28;20029;-52
2022/12/30 07:07:19;;;;;;;13.30;8.20;;;4.20;99.90;;;;;;5053861;28;20053;-57
2022/12/30 07:09:44;;;;;;;9.13;6.57;;;4.20;99.90;;;;;;5053680;28;20053;-58
2022/12/30 07:12:10;;;;;;;7.05;5.22;;;4.10;99.90;;;;;;5057854;28;20036;-55
2022/12/30 07:14:36;;;;;;;6.95;6.25;;;4.00;99.90;;;;;;5072760;28;20029;-57
2022/12/30 07:17:02;;;;;;;16.27;6.75;;;4.00;99.90;;;;;;5073710;28;20372;-55
2022/12/30 07:19:27;;;;;;;8.05;6.70;;;3.90;99.90;;;;;;5061981;28;20025;-53
2022/12/30 07:21:53;;;;;;;10.45;6.55;;;3.80;99.90;;;;;;5070427;28;20029;-56
2022/12/30 07:24:19;;;;;;;9.68;6.75;;;3.70;99.90;;;;;;5074528;28;20029;-53
2022/12/30 07:26:45;;;;;;;9.77;7.75;;;3.70;99.90;;;;;;5073008;28;20694;-52
2022/12/30 07:29:12;;;;;;;7.43;6.72;;;3.70;99.90;;;;;;5072414;28;20032;-53
2022/12/30 07:31:39;;;;;;;7.82;6.93;;;3.70;99.90;;;;;;5072935;28;20082;-55
2022/12/30 07:34:05;;;;;;;7.05;6.07;;;3.70;99.90;;;;;;5073345;28;20031;-54
2022/12/30 07:36:30;;;;;;;7.50;6.80;;;3.70;99.90;;;;;;5072156;28;20096;-55
2022/12/30 07:39:00;;;;;;;8.25;6.97;;;3.70;99.90;;;;;;5072572;28;20100;-54
2022/12/30 07:41:26;;;;;;;14.40;8.05;;;3.60;99.90;;;;;;5072127;28;20017;-53
2022/12/30 07:43:52;;;;;;;11.90;8.60;;;3.70;99.90;;;;;;5072512;28;20025;-56
2022/12/30 07:46:18;;;;;;;11.63;9.65;;;3.70;99.90;;;;;;5072559;28;20368;-52
2022/12/30 07:48:44;;;;;;;9.90;8.40;;;3.90;99.90;;;;;;5072609;28;20024;-53
2022/12/30 07:51:11;;;;;;;12.13;8.45;;;4.00;99.90;;;;;;5072621;28;20477;-55
2022/12/30 07:53:37;;;;;;;16.98;9.65;;;4.20;99.90;;;;;;5072782;28;20082;-55
2022/12/30 07:56:08;;;;;;;14.85;11.55;;;4.30;99.90;;;;;;5072997;28;20028;-56
2022/12/30 07:58:34;;;;;;;11.75;9.13;;;4.40;99.90;;;;;;5073181;28;20023;-51
2022/12/30 08:01:11;;;;;;;11.48;8.85;;;4.50;99.90;;;;;;5072868;28;20028;-54
2022/12/30 08:03:37;;;;;;;13.20;10.38;;;4.60;99.90;;;;;;5072950;28;20060;-55
2022/12/30 08:06:09;;;;;;;16.33;10.05;;;4.70;99.90;;;;;;5072534;28;20047;-56
2022/12/30 08:08:35;;;;;;;10.65;9.55;;;4.90;99.90;;;;;;5072778;28;20033;-52
2022/12/30 08:11:02;;;;;;;11.32;10.13;;;5.00;99.90;;;;;;5072560;28;20067;-56
2022/12/30 08:13:33;;;;;;;12.43;9.85;;;5.20;99.90;;;;;;5072417;28;20025;-56
2022/12/30 08:16:05;;;;;;;12.20;9.27;;;5.40;99.90;;;;;;5072089;28;20031;-53
2022/12/30 08:18:31;;;;;;;13.02;10.05;;;5.50;99.90;;;;;;5072461;28;20084;-53
2022/12/30 08:21:08;;;;;;;9.48;7.95;;;5.70;99.90;;;;;;5072436;28;20021;-53
2022/12/30 08:23:34;;;;;;;7.93;7.13;;;5.90;99.90;;;;;;5072150;28;20119;-53
2022/12/30 08:26:07;;;;;;;10.75;7.30;;;6.20;99.90;;;;;;5072555;28;20111;-51
2022/12/30 08:28:35;;;;;;;7.07;6.20;;;6.50;99.90;;;;;;5072333;28;20080;-53
2022/12/30 08:31:15;;;;;;;6.30;5.10;;;6.70;99.90;;;;;;5072303;28;20025;-54
2022/12/30 08:33:42;;;;;;;10.95;5.28;;;6.80;99.90;;;;;;5071425;28;20078;-53
2022/12/30 08:36:11;;;;;;;5.57;4.13;;;6.90;99.90;;;;;;5071980;28;20021;-52
2022/12/30 08:38:39;;;;;;;4.43;3.22;;;7.00;99.90;;;;;;5085715;28;20063;-53
2022/12/30 08:41:12;;;;;;;4.07;3.15;;;7.20;99.90;;;;;;5072129;28;20108;-52
2022/12/30 08:43:37;;;;;;;5.10;3.97;;;7.30;99.90;;;;;;5072106;28;20486;-56
2022/12/30 08:46:04;;;;;;;5.78;4.30;;;7.40;99.90;;;;;;5071906;28;20017;-55
2022/12/30 08:48:30;;;;;;;7.50;5.47;;;7.30;99.90;;;;;;5072020;28;20435;-53
2022/12/30 08:50:57;;;;;;;5.45;3.72;;;7.30;99.90;;;;;;5071741;28;20040;-50
2022/12/30 08:53:23;;;;;;;5.32;4.13;;;7.20;99.90;;;;;;5071720;28;20067;-52
2022/12/30 08:55:57;;;;;;;7.30;3.70;;;7.20;99.90;;;;;;5071461;28;20380;-52
2022/12/30 08:58:23;;;;;;;4.40;4.00;;;7.10;99.90;;;;;;5071675;28;20029;-53
2022/12/30 09:00:49;;;;;;;4.38;3.38;;;7.00;99.90;;;;;;5071783;28;20027;-53
2022/12/30 09:03:14;;;;;;;4.68;4.22;;;6.90;99.90;;;;;;5066725;28;20579;-54
2022/12/30 09:05:40;;;;;;;4.88;4.38;;;6.80;99.90;;;;;;5051792;28;20115;-52
2022/12/30 09:08:06;;;;;;;6.40;4.35;;;6.80;99.90;;;;;;5059293;28;20060;-50
2022/12/30 09:10:31;;;;;;;14.27;11.77;;;6.80;99.90;;;;;;5051434;28;20080;-53
2022/12/30 09:12:57;;;;;;;8.77;6.15;;;6.80;99.90;;;;;;5069301;28;20116;-54
2022/12/30 09:15:23;;;;;;;5.78;4.70;;;6.80;99.90;;;;;;5071469;28;20029;-54
2022/12/30 09:17:48;;;;;;;4.55;4.00;;;6.80;99.90;;;;;;5070210;28;20031;-53
2022/12/30 09:20:14;;;;;;;4.30;3.90;;;6.80;99.90;;;;;;5052592;28;20031;-54
2022/12/30 09:22:39;;;;;;;3.78;3.45;;;6.80;99.90;;;;;;5070597;28;20107;-53
2022/12/30 09:25:06;;;;;;;3.83;3.53;;;6.80;99.90;;;;;;5069792;28;20040;-55
2022/12/30 09:27:32;;;;;;;6.55;4.18;;;6.90;99.90;;;;;;5064251;28;20054;-55
2022/12/30 09:29:57;;;;;;;4.00;3.50;;;7.00;99.90;;;;;;5051791;28;20107;-51
2022/12/30 09:32:23;;;;;;;4.18;3.70;;;7.30;99.90;;;;;;5066858;28;20174;-51
2022/12/30 09:34:48;;;;;;;3.22;2.67;;;8.20;99.90;;;;;;5050880;28;20479;-55
2022/12/30 09:37:14;;;;;;;3.45;2.75;;;9.90;99.90;;;;;;5053579;28;20491;-50
2022/12/30 09:39:40;;;;;;;3.50;2.78;;;12.00;99.90;;;;;;5064488;28;20150;-56
2022/12/30 09:45:49;;;;;;;5.78;2.70;;;15.20;92.80;;;;;;5054033;28;20557;-52
2022/12/30 09:48:19;;;;;;;3.65;2.50;;;16.20;87.70;;;;;;5060810;28;20060;-54
2022/12/30 09:50:55;;;;;;;3.83;2.72;;;17.30;85.30;;;;;;5061299;28;20044;-53
2022/12/30 09:53:40;;;;;;;2.15;1.75;;;17.80;78.10;;;;;;5070129;28;20052;-53
2022/12/30 09:56:21;;;;;;;3.35;1.50;;;17.70;76.80;;;;;;5070178;28;20039;-54
2022/12/30 09:58:47;;;;;;;1.27;1.05;;;18.40;75.00;;;;;;5070613;28;20412;-51
2022/12/30 10:01:36;;;;;;;1.23;0.75;;;19.70;69.50;;;;;;5070358;28;20057;-51
2022/12/30 10:04:02;;;;;;;1.63;1.20;;;20.20;64.80;;;;;;5077322;28;20048;-54
2022/12/30 10:06:36;;;;;;;1.90;1.02;;;20.10;62.70;;;;;;5070813;28;20036;-53
2022/12/30 10:09:16;;;;;;;1.52;1.38;;;20.20;61.80;;;;;;5065102;28;20052;-55
2022/12/30 10:11:57;;;;;;;1.80;1.25;;;19.40;62.40;;;;;;5081475;28;20036;-50
2022/12/30 10:14:38;;;;;;;5.18;0.95;;;19.20;63.10;;;;;;5063085;28;20076;-55
2022/12/30 10:17:24;;;;;;;2.97;1.73;;;19.20;62.30;;;;;;5070177;28;20032;-55
2022/12/30 10:19:49;;;;;;;8.70;4.68;;;18.80;63.30;;;;;;5061098;28;20028;-54
2022/12/30 10:22:30;;;;;;;12.80;8.43;;;19.00;65.00;;;;;;5060296;28;20024;-54
2022/12/30 10:25:11;;;;;;;8.05;5.63;;;19.20;63.90;;;;;;5051486;28;20032;-56
2022/12/30 10:27:50;;;;;;;3.80;1.80;;;19.20;64.20;;;;;;5061196;28;20030;-54
2022/12/30 10:30:37;;;;;;;2.50;1.55;;;19.90;62.30;;;;;;5053964;28;20009;-51
2022/12/30 10:33:08;;;;;;;3.13;1.55;;;20.10;61.30;;;;;;5062988;28;20056;-54
2022/12/30 10:35:37;;;;;;;2.63;1.60;;;19.80;60.90;;;;;;5063580;28;20037;-55
2022/12/30 10:38:22;;;;;;;2.17;1.98;;;19.30;61.70;;;;;;5065781;28;20082;-51
2022/12/30 10:40:56;;;;;;;1.83;1.25;;;19.80;61.60;;;;;;5071301;28;20371;-51
2022/12/30 10:43:53;;;;;;;1.58;1.48;;;20.10;61.20;;;;;;5072782;28;20025;-53
2022/12/30 10:46:40;;;;;;;1.15;1.00;;;20.10;59.80;;;;;;5084405;28;20039;-53
2022/12/30 10:49:28;;;;;;;1.92;1.20;;;19.90;60.60;;;;;;5092636;28;20080;-56
2022/12/30 10:51:54;;;;;;;1.52;1.08;;;20.00;60.00;;;;;;5076339;28;20108;-56
2022/12/30 10:54:20;;;;;;;6.45;1.35;;;20.30;59.20;;;;;;5073632;28;20388;-50
2022/12/30 10:56:48;;;;;;;1.88;1.23;;;19.80;59.20;;;;;;5074012;28;20025;-52
2022/12/30 10:59:17;;;;;;;1.55;1.38;;;19.90;58.60;;;;;;5073731;28;20327;-53
2022/12/30 11:01:46;;;;;;;1.25;0.88;;;20.30;59.50;;;;;;5073315;28;20030;-55
2022/12/30 11:04:38;;;;;;;1.23;0.90;;;20.20;58.00;;;;;;5073539;28;20016;-52
2022/12/30 11:07:07;;;;;;;6.95;1.35;;;20.80;58.80;;;;;;5074208;28;20111;-53
2022/12/30 11:09:33;;;;;;;2.47;1.25;;;20.50;56.80;;;;;;5073176;28;20109;-54
2022/12/30 11:14:57;;;;;;;1.35;0.80;;;20.20;58.10;;;;;;5074068;28;20039;-53
2022/12/30 11:17:46;;;;;;;0.68;0.68;;;20.60;56.00;;;;;;5073909;28;20020;-54
2022/12/30 11:20:32;;;;;;;0.80;0.80;;;20.40;56.00;;;;;;5072410;28;20041;-55
2022/12/30 11:23:00;;;;;;;1.63;1.05;;;21.10;56.00;;;;;;5073283;28;20048;-55
2022/12/30 11:25:33;;;;;;;1.40;1.30;;;21.30;54.30;;;;;;5073922;28;20035;-54
2022/12/30 11:28:02;;;;;;;1.70;1.05;;;21.20;55.40;;;;;;5094107;28;20032;-55
2022/12/30 11:30:38;;;;;;;1.80;0.90;;;20.40;54.60;;;;;;5071847;28;20036;-51
2022/12/30 11:33:13;;;;;;;1.83;1.25;;;21.00;55.20;;;;;;5041887;28;20037;-54
2022/12/30 11:35:42;;;;;;;2.20;1.20;;;20.80;53.60;;;;;;5042557;28;20491;-54
2022/12/30 11:38:31;;;;;;;2.40;1.38;;;20.50;53.80;;;;;;5041538;28;20134;-52
2022/12/30 11:44:01;;;;;;;4.57;1.42;;;19.20;55.80;;;;;;5037936;28;20050;-54
2022/12/30 11:46:43;;;;;;;1.77;1.63;;;19.20;55.50;;;;;;5041724;28;20472;-53
2022/12/30 11:49:25;;;;;;;2.63;1.90;;;19.10;57.20;;;;;;5042089;28;20112;-54
2022/12/30 11:51:53;;;;;;;1.58;1.35;;;19.00;56.40;;;;;;5042306;28;20075;-54
2022/12/30 11:54:30;;;;;;;1.92;1.50;;;18.80;57.40;;;;;;5040619;28;20044;-52
2022/12/30 11:57:31;;;;;;;4.50;1.83;;;19.50;57.10;;;;;;5043975;28;20032;-53
2022/12/30 11:59:59;;;;;;;1.40;1.27;;;20.00;55.30;;;;;;5056171;28;20044;-53
2022/12/30 12:02:32;;;;;;;3.22;1.98;;;19.60;54.70;;;;;;5056453;28;20037;-52
2022/12/30 12:04:58;;;;;;;4.78;1.30;;;19.70;55.30;;;;;;5042717;28;20052;-52
2022/12/30 12:07:45;;;;;;;3.63;1.52;;;19.70;56.10;;;;;;5041840;28;20057;-51
2022/12/30 12:10:31;;;;;;;1.25;1.13;;;19.70;55.70;;;;;;5042112;28;20041;-53
2022/12/30 12:13:02;;;;;;;1.98;1.40;;;18.40;56.90;;;;;;5042178;28;20021;-53
2022/12/30 12:15:51;;;;;;;2.30;1.85;;;17.60;59.30;;;;;;5041065;28;20017;-54
2022/12/30 12:18:34;;;;;;;1.75;1.40;;;16.60;60.50;;;;;;5043708;28;20134;-51
2022/12/30 12:21:24;;;;;;;1.95;1.67;;;14.80;65.20;;;;;;5041055;28;20595;-50
2022/12/30 12:24:09;;;;;;;1.65;1.20;;;14.20;66.60;;;;;;5042032;28;20053;-54
2022/12/30 12:26:47;;;;;;;4.57;1.30;;;14.40;67.90;;;;;;5043643;28;20044;-51
2022/12/30 12:29:14;;;;;;;1.13;1.05;;;14.30;69.30;;;;;;5043308;28;20471;-53
2022/12/30 12:32:16;;;;;;;6.25;2.03;;;15.00;67.20;;;;;;5041992;28;22354;-54
2022/12/30 12:34:57;;;;;;;2.35;1.50;;;15.80;64.50;;;;;;5041251;28;20108;-50
2022/12/30 12:37:51;;;;;;;1.25;0.88;;;17.10;62.30;;;;;;5042185;28;20025;-52
2022/12/30 12:40:20;;;;;;;4.95;1.70;;;16.90;62.40;;;;;;5041899;28;20028;-53
2022/12/30 12:42:56;;;;;;;2.03;1.92;;;16.30;66.10;;;;;;5041651;28;22543;-51
2022/12/30 12:45:40;;;;;;;2.50;2.30;;;16.10;64.30;;;;;;5041845;28;20035;-52
2022/12/30 12:48:27;;;;;;;6.63;2.97;;;15.50;65.00;;;;;;5041306;28;20048;-52
2022/12/30 12:51:01;;;;;;;3.75;2.10;;;15.00;66.20;;;;;;5041876;28;20104;-52
2022/12/30 12:53:45;;;;;;;2.25;2.05;;;14.40;68.30;;;;;;5040830;28;20037;-51
2022/12/30 12:56:49;;;;;;;3.65;3.17;;;14.30;70.60;;;;;;5040835;28;20027;-53
2022/12/30 12:59:23;;;;;;;;;;;14.00;71.90;;;;;;5046120;28;20040;-54
2022/12/30 13:01:55;;;;;;;5.10;3.65;;;14.00;72.80;;;;;;5040915;28;19915;-52
2022/12/30 13:04:32;;;;;;;6.78;3.97;;;14.00;74.20;;;;;;5041442;28;20021;-52
2022/12/30 13:07:09;;;;;;;12.50;4.80;;;13.90;75.30;;;;;;5039533;28;20178;-52
2022/12/30 13:10:02;;;;;;;7.90;4.60;;;13.90;76.50;;;;;;5040814;28;20049;-49
2022/12/30 13:12:49;;;;;;;5.55;4.38;;;14.80;74.90;;;;;;5040537;28;20029;-53
2022/12/30 13:15:31;;;;;;;5.00;4.18;;;15.90;73.10;;;;;;5041844;28;20139;-55
2022/12/30 13:18:01;;;;;;;31.67;16.00;;;17.10;68.40;;;;;;5043331;28;20029;-53
2022/12/30 13:20:30;;;;;;;7.10;5.35;;;17.70;66.50;;;;;;5041513;28;20099;-53
2022/12/30 13:23:02;;;;;;;11.25;4.13;;;17.80;66.00;;;;;;5042077;28;20121;-52
2022/12/30 13:25:33;;;;;;;7.75;4.32;;;18.20;64.40;;;;;;5040176;28;20029;-51
2022/12/30 13:28:00;;;;;;;7.63;4.15;;;17.90;64.60;;;;;;5041340;28;20088;-50
2022/12/30 13:30:35;;;;;;;6.45;4.25;;;18.90;63.80;;;;;;5041723;28;20064;-53
2022/12/30 13:33:38;;;;;;;6.00;4.18;;;18.00;64.50;;;;;;5041073;28;20028;-53
2022/12/30 13:36:29;;;;;;;4.97;3.88;;;18.60;63.10;;;;;;5041551;28;20037;-53
2022/12/30 13:39:19;;;;;;;8.63;3.85;;;18.60;62.80;;;;;;5042028;28;20051;-55
2022/12/30 13:42:03;;;;;;;7.03;3.95;;;18.40;63.60;;;;;;5040522;28;20491;-55
2022/12/30 13:44:42;;;;;;;5.38;3.58;;;17.60;64.80;;;;;;5042170;28;20063;-55
2022/12/30 13:47:34;;;;;;;4.65;3.75;;;17.50;65.60;;;;;;5046495;28;20387;-51
2022/12/30 13:50:11;;;;;;;6.03;3.67;;;17.80;64.70;;;;;;5046167;28;20029;-54
2022/12/30 13:52:47;;;;;;;7.72;3.67;;;17.80;64.30;;;;;;5048498;28;20021;-54
2022/12/30 13:55:19;;;;;;;7.13;3.65;;;17.90;64.00;;;;;;5043524;28;20021;-50
2022/12/30 13:57:47;;;;;;;4.13;2.97;;;17.60;64.00;;;;;;5049799;28;20033;-55
2022/12/30 14:00:31;;;;;;;5.43;3.60;;;17.40;64.50;;;;;;5040201;28;20436;-55
2022/12/30 14:03:20;;;;;;;5.30;3.20;;;17.70;64.00;;;;;;5040402;28;20037;-55
2022/12/30 14:05:46;;;;;;;7.10;3.20;;;17.30;63.90;;;;;;5039926;28;20476;-52
2022/12/30 14:08:21;;;;;;;17.25;12.15;;;16.60;65.60;;;;;;5040536;28;20033;-51
2022/12/30 14:10:58;;;;;;;29.00;17.63;;;16.30;65.60;;;;;;5042624;28;20079;-53